This is the latest recevied weather packets stored in our database for station/object WB4ROX. If no packets are shown the sender has not sent any weather packets the latest 10 day(s).
| Time | Temp. | Humidity | Pressure | Rain* | Wind** | Luminosity | Snow |
|---|---|---|---|---|---|---|---|
| 1777744103 | 6.67° C | 43% | 1014.1 hPa | 0 mm | - | 571 W/m² | - |
| 1777743801 | 6.11° C | 44% | 1013.9 hPa | 0 mm | - | 921 W/m² | - |
| 1777743497 | 6.67° C | 44% | 1014 hPa | 0 mm | - | 666 W/m² | - |
| 1777743194 | 6.67° C | 44% | 1014.1 hPa | 0 mm | - | 433 W/m² | - |
| 1777742892 | 7.22° C | 42% | 1014.5 hPa | 0 mm | - | 909 W/m² | - |
| 1777742588 | 6.67° C | 43% | 1014.1 hPa | 0 mm | - | 889 W/m² | - |
| 1777742284 | 6.67° C | 45% | 1014.3 hPa | 0 mm | - | 872 W/m² | - |
| 1777741981 | 6.11° C | 45% | 1014.3 hPa | 0 mm | - | 845 W/m² | - |
| 1777741679 | 6.67° C | 42% | 1014.3 hPa | 0 mm | - | 864 W/m² | - |
| 1777741375 | 6.67° C | 44% | 1014.3 hPa | 0 mm | - | 861 W/m² | - |
| 1777741071 | 6.11° C | 45% | 1014.4 hPa | 0 mm | - | 860 W/m² | - |
| 1777740768 | 5.56° C | 47% | 1014.5 hPa | 0 mm | - | 858 W/m² | - |
| 1777740464 | 5.56° C | 43% | 1014.6 hPa | 0 mm | - | 881 W/m² | - |
| 1777740162 | 5.56° C | 48% | 1014.7 hPa | 0 mm | - | 975 W/m² | - |
| 1777739858 | 5.56° C | 48% | 1014.6 hPa | 0 mm | - | 464 W/m² | - |
| 1777739555 | 5.56° C | 53% | 1014.6 hPa | 0 mm | - | 1040 W/m² | - |
| 1777739252 | 5.56° C | 47% | 1014.6 hPa | 0 mm | - | 353 W/m² | - |
| 1777738949 | 5° C | 52% | 1014.6 hPa | 0 mm | - | 1070 W/m² | - |
| 1777738646 | 5° C | 52% | 1014.8 hPa | 0 mm | - | 395 W/m² | - |
| 1777738342 | 5° C | 52% | 1014.7 hPa | 0 mm | - | 395 W/m² | - |
| 1777738040 | 4.44° C | 53% | 1014.7 hPa | 0 mm | - | 405 W/m² | - |
| 1777737739 | 5° C | 52% | 1014.8 hPa | 0 mm | - | 359 W/m² | - |
| 1777737437 | 5° C | 54% | 1015 hPa | 0 mm | - | 462 W/m² | - |
| 1777737135 | 5° C | 52% | 1015.1 hPa | 0 mm | - | 339 W/m² | - |
| 1777736830 | 5° C | 50% | 1014.7 hPa | 0 mm | - | 385 W/m² | - |
* Rain latest hour (hover to see other rain measurements)
** Current wind speed in m/s (hover to see current wind gust speed)